DAL819 KATL-KSAN
Flight info
| Callsign | DAL819 |
|---|---|
| Flight time | N/A |
| Altitude | 34000 |
| Route | PENCL2 JAACE HITMN SOPIE J46 TUL J78 IRW J14 PNH J6 ABQ HOGGZ LUCKI1 |
| Aircraft | B752/M-SDE2E3FGHIJ3J4J7RWXY/LB1 |
Departure
| Time | 2026-05-07 21:05 |
|---|---|
| Airport | Hartsfield Jackson Atlanta International Airport (KATL) |
Arrival
| Time | N/A |
|---|---|
| Airport | San Diego International Airport (KSAN) |
| Time | Latitude | Longitude | Altitude | Speed | Heading |
|---|---|---|---|---|---|
| 2026-05-07 20:34 | 33.64381 | -84.43529 | 1014 ft | 0 kts | 270° |
| 2026-05-07 20:47 | 33.64381 | -84.43523 | 1013 ft | 2 kts | 270° |
| 2026-05-07 20:47 | 33.64381 | -84.43505 | 1012 ft | 2 kts | 270° |
| 2026-05-07 20:47 | 33.64381 | -84.43487 | 1012 ft | 2 kts | 270° |
| 2026-05-07 20:48 | 33.64380 | -84.43466 | 1012 ft | 2 kts | 297° |
| 2026-05-07 20:48 | 33.64376 | -84.43460 | 1012 ft | 1 kts | 317° |
| 2026-05-07 20:48 | 33.64370 | -84.43453 | 1012 ft | 0 kts | 315° |
| 2026-05-07 20:50 | 33.64374 | -84.43460 | 1012 ft | 3 kts | 300° |
| 2026-05-07 20:51 | 33.64381 | -84.43508 | 1013 ft | 5 kts | 271° |
| 2026-05-07 20:51 | 33.64381 | -84.43528 | 1013 ft | 0 kts | 271° |
| 2026-05-07 20:51 | 33.64381 | -84.43530 | 1013 ft | 0 kts | 271° |
| 2026-05-07 20:54 | 33.64381 | -84.43529 | 1013 ft | 0 kts | 271° |
| 2026-05-07 20:54 | 33.64380 | -84.43519 | 1013 ft | 2 kts | 272° |
| 2026-05-07 20:54 | 33.64380 | -84.43501 | 1012 ft | 2 kts | 269° |
| 2026-05-07 20:54 | 33.64380 | -84.43483 | 1012 ft | 2 kts | 271° |
| 2026-05-07 20:55 | 33.64379 | -84.43465 | 1012 ft | 2 kts | 295° |
| 2026-05-07 20:55 | 33.64374 | -84.43456 | 1012 ft | 1 kts | 314° |
| 2026-05-07 20:55 | 33.64370 | -84.43451 | 1012 ft | 0 kts | 315° |
| 2026-05-07 20:57 | 33.64375 | -84.43456 | 1012 ft | 1 kts | 329° |
| 2026-05-07 20:58 | 33.64394 | -84.43459 | 1012 ft | 5 kts | 359° |
| 2026-05-07 20:58 | 33.64437 | -84.43446 | 1012 ft | 7 kts | 30° |
| 2026-05-07 20:58 | 33.64458 | -84.43385 | 1011 ft | 10 kts | 82° |
| 2026-05-07 20:58 | 33.64461 | -84.43285 | 1009 ft | 14 kts | 90° |
| 2026-05-07 20:59 | 33.64461 | -84.43149 | 1006 ft | 18 kts | 90° |
| 2026-05-07 20:59 | 33.64461 | -84.42992 | 1006 ft | 18 kts | 90° |
| 2026-05-07 20:59 | 33.64461 | -84.42840 | 1003 ft | 18 kts | 90° |
| 2026-05-07 20:59 | 33.64469 | -84.42689 | 1001 ft | 18 kts | 89° |
| 2026-05-07 21:00 | 33.64469 | -84.42529 | 995 ft | 19 kts | 90° |
| 2026-05-07 21:00 | 33.64469 | -84.42364 | 988 ft | 17 kts | 90° |
| 2026-05-07 21:00 | 33.64493 | -84.42213 | 982 ft | 19 kts | 58° |
| 2026-05-07 21:00 | 33.64544 | -84.42064 | 976 ft | 20 kts | 88° |
| 2026-05-07 21:01 | 33.64543 | -84.41888 | 973 ft | 21 kts | 90° |
| 2026-05-07 21:01 | 33.64544 | -84.41708 | 971 ft | 21 kts | 90° |
| 2026-05-07 21:01 | 33.64544 | -84.41528 | 972 ft | 21 kts | 90° |
| 2026-05-07 21:01 | 33.64543 | -84.41360 | 975 ft | 19 kts | 90° |
| 2026-05-07 21:02 | 33.64543 | -84.41202 | 976 ft | 19 kts | 90° |
| 2026-05-07 21:02 | 33.64543 | -84.41040 | 979 ft | 19 kts | 90° |
| 2026-05-07 21:02 | 33.64543 | -84.40867 | 976 ft | 21 kts | 88° |
| 2026-05-07 21:02 | 33.64571 | -84.40707 | 977 ft | 15 kts | 90° |
| 2026-05-07 21:03 | 33.64582 | -84.40591 | 976 ft | 12 kts | 51° |
| 2026-05-07 21:03 | 33.64649 | -84.40568 | 978 ft | 8 kts | 358° |
| 2026-05-07 21:03 | 33.64672 | -84.40576 | 979 ft | 3 kts | 320° |
| 2026-05-07 21:03 | 33.64679 | -84.40597 | 979 ft | 3 kts | 277° |
| 2026-05-07 21:04 | 33.64680 | -84.40649 | 980 ft | 11 kts | 271° |
| 2026-05-07 21:04 | 33.64677 | -84.40971 | 984 ft | 67 kts | 270° |
| 2026-05-07 21:04 | 33.64683 | -84.41782 | 975 ft | 124 kts | 268° |
| 2026-05-07 21:04 | 33.64683 | -84.43006 | 1048 ft | 167 kts | 268° |
| 2026-05-07 21:05 | 33.64668 | -84.44498 | 1531 ft | 185 kts | 272° |
| 2026-05-07 21:05 | 33.64744 | -84.46025 | 2318 ft | 186 kts | 283° |
| 2026-05-07 21:05 | 33.65203 | -84.47555 | 2540 ft | 206 kts | 296° |
| 2026-05-07 21:05 | 33.65847 | -84.49159 | 2870 ft | 222 kts | 295° |
| 2026-05-07 21:06 | 33.66514 | -84.50890 | 3282 ft | 236 kts | 295° |
| 2026-05-07 21:06 | 33.66982 | -84.52107 | 3635 ft | 242 kts | 294° |
| 2026-05-07 21:06 | 33.67894 | -84.54491 | 4731 ft | 238 kts | 294° |
| 2026-05-07 21:06 | 33.68631 | -84.56304 | 5410 ft | 242 kts | 303° |
| 2026-05-07 21:07 | 33.69396 | -84.57278 | 5910 ft | 246 kts | 322° |
| 2026-05-07 21:07 | 33.71615 | -84.58065 | 6783 ft | 264 kts | 352° |
| 2026-05-07 21:07 | 33.73460 | -84.58074 | 7413 ft | 268 kts | 352° |
| 2026-05-07 21:07 | 33.75351 | -84.58090 | 8083 ft | 270 kts | 352° |
| 2026-05-07 21:08 | 33.77224 | -84.58088 | 8755 ft | 272 kts | 352° |
| 2026-05-07 21:08 | 33.79118 | -84.58078 | 9386 ft | 276 kts | 352° |
| 2026-05-07 21:08 | 33.81089 | -84.58067 | 9990 ft | 280 kts | 351° |
| 2026-05-07 21:08 | 33.83055 | -84.58088 | 10428 ft | 291 kts | 350° |
| 2026-05-07 21:09 | 33.85119 | -84.58259 | 10616 ft | 302 kts | 340° |
| 2026-05-07 21:09 | 33.87207 | -84.58924 | 10830 ft | 317 kts | 336° |
| 2026-05-07 21:09 | 33.89383 | -84.59634 | 11053 ft | 336 kts | 338° |
| 2026-05-07 21:09 | 33.91690 | -84.60376 | 11534 ft | 344 kts | 337° |
| 2026-05-07 21:10 | 33.94013 | -84.61118 | 12267 ft | 344 kts | 336° |
| 2026-05-07 21:10 | 33.95553 | -84.61613 | 12676 ft | 346 kts | 336° |
| 2026-05-07 21:10 | 33.98640 | -84.62607 | 13547 ft | 346 kts | 335° |
| 2026-05-07 21:10 | 34.00983 | -84.63367 | 13922 ft | 354 kts | 335° |
| 2026-05-07 21:11 | 34.03393 | -84.64145 | 14450 ft | 357 kts | 335° |
| 2026-05-07 21:11 | 34.05815 | -84.64928 | 15007 ft | 358 kts | 334° |
| 2026-05-07 21:11 | 34.10678 | -84.66501 | 16024 ft | 363 kts | 333° |
| 2026-05-07 21:12 | 34.12310 | -84.67032 | 16192 ft | 369 kts | 333° |
| 2026-05-07 21:12 | 34.15596 | -84.68094 | 16933 ft | 369 kts | 332° |
| 2026-05-07 21:12 | 34.18123 | -84.68919 | 17230 ft | 377 kts | 332° |
| 2026-05-07 21:12 | 34.19808 | -84.69462 | 17657 ft | 375 kts | 332° |
| 2026-05-07 21:13 | 34.23203 | -84.70567 | 18183 ft | 379 kts | 332° |
| 2026-05-07 21:13 | 34.24860 | -84.71104 | 18433 ft | 382 kts | 332° |
| 2026-05-07 21:13 | 34.28336 | -84.72140 | 19054 ft | 377 kts | 328° |
| 2026-05-07 21:13 | 34.30811 | -84.73291 | 19333 ft | 377 kts | 326° |
| 2026-05-07 21:14 | 34.32421 | -84.74041 | 19669 ft | 378 kts | 326° |
| 2026-05-07 21:14 | 34.35729 | -84.75530 | 20173 ft | 382 kts | 327° |
| 2026-05-07 21:14 | 34.38238 | -84.76627 | 20628 ft | 383 kts | 327° |
| 2026-05-07 21:14 | 34.40761 | -84.77724 | 20784 ft | 391 kts | 328° |
| 2026-05-07 21:15 | 34.42453 | -84.78444 | 21314 ft | 384 kts | 328° |
| 2026-05-07 21:15 | 34.45011 | -84.79540 | 21539 ft | 390 kts | 328° |
| 2026-05-07 21:15 | 34.48420 | -84.80990 | 22198 ft | 388 kts | 328° |
| 2026-05-07 21:15 | 34.50117 | -84.81715 | 22247 ft | 395 kts | 327° |
| 2026-05-07 21:16 | 34.53592 | -84.83192 | 22953 ft | 391 kts | 328° |
| 2026-05-07 21:16 | 34.56163 | -84.84288 | 23086 ft | 399 kts | 327° |
| 2026-05-07 21:16 | 34.58792 | -84.85405 | 23606 ft | 397 kts | 327° |
| 2026-05-07 21:16 | 34.61400 | -84.86514 | 23934 ft | 400 kts | 327° |
| 2026-05-07 21:17 | 34.63173 | -84.87272 | 24062 ft | 404 kts | 328° |
| 2026-05-07 21:17 | 34.65795 | -84.88386 | 24600 ft | 401 kts | 327° |
| 2026-05-07 21:17 | 34.69321 | -84.89891 | 25005 ft | 405 kts | 327° |
| 2026-05-07 21:17 | 34.71121 | -84.90659 | 25104 ft | 411 kts | 327° |
| 2026-05-07 21:18 | 34.73831 | -84.91815 | 25599 ft | 408 kts | 327° |
| 2026-05-07 21:18 | 34.77382 | -84.93330 | 25953 ft | 412 kts | 327° |
| 2026-05-07 21:18 | 34.80091 | -84.94488 | 26328 ft | 413 kts | 327° |
| 2026-05-07 21:18 | 34.81918 | -84.95270 | 26560 ft | 413 kts | 327° |
| 2026-05-07 21:19 | 34.85515 | -84.96808 | 26951 ft | 415 kts | 326° |
| 2026-05-07 21:19 | 34.88245 | -84.97983 | 27110 ft | 420 kts | 327° |
| 2026-05-07 21:19 | 34.90978 | -84.99149 | 27576 ft | 417 kts | 326° |
| 2026-05-07 21:19 | 34.92795 | -84.99928 | 27784 ft | 417 kts | 326° |
| 2026-05-07 21:20 | 34.95565 | -85.01121 | 27968 ft | 420 kts | 326° |
| 2026-05-07 21:20 | 34.99255 | -85.02703 | 28367 ft | 421 kts | 326° |
| 2026-05-07 21:20 | 35.02021 | -85.03892 | 28652 ft | 422 kts | 326° |
| 2026-05-07 21:20 | 35.04779 | -85.05080 | 28907 ft | 423 kts | 325° |
| 2026-05-07 21:21 | 35.07560 | -85.06320 | 29141 ft | 418 kts | 322° |
| 2026-05-07 21:21 | 35.09278 | -85.07346 | 29439 ft | 404 kts | 315° |
| 2026-05-07 21:21 | 35.11546 | -85.09253 | 29577 ft | 389 kts | 307° |
| 2026-05-07 21:21 | 35.13421 | -85.11560 | 29728 ft | 380 kts | 300° |
| 2026-05-07 21:22 | 35.15131 | -85.14018 | 29852 ft | 383 kts | 299° |
| 2026-05-07 21:22 | 35.17399 | -85.17329 | 30223 ft | 381 kts | 298° |
| 2026-05-07 21:22 | 35.19084 | -85.19840 | 30480 ft | 380 kts | 298° |
| 2026-05-07 21:22 | 35.20190 | -85.21495 | 30769 ft | 378 kts | 298° |
| 2026-05-07 21:23 | 35.21837 | -85.23991 | 30932 ft | 378 kts | 298° |
| 2026-05-07 21:23 | 35.23995 | -85.27271 | 31473 ft | 373 kts | 298° |
| 2026-05-07 21:23 | 35.27240 | -85.32254 | 31804 ft | 374 kts | 297° |
| 2026-05-07 21:24 | 35.28330 | -85.33933 | 31911 ft | 374 kts | 298° |
| 2026-05-07 21:24 | 35.30478 | -85.37246 | 32174 ft | 374 kts | 297° |
| 2026-05-07 21:24 | 35.32096 | -85.39748 | 32388 ft | 373 kts | 297° |
| 2026-05-07 21:24 | 35.33703 | -85.42235 | 32743 ft | 369 kts | 297° |
| 2026-05-07 21:25 | 35.36351 | -85.46343 | 32979 ft | 369 kts | 297° |
| 2026-05-07 21:25 | 35.37938 | -85.48803 | 33139 ft | 369 kts | 297° |
| 2026-05-07 21:25 | 35.39519 | -85.51260 | 33303 ft | 369 kts | 297° |
| 2026-05-07 21:26 | 35.41118 | -85.53748 | 33438 ft | 369 kts | 297° |
| 2026-05-07 21:26 | 35.42701 | -85.56213 | 33595 ft | 368 kts | 297° |
| 2026-05-07 21:26 | 35.44805 | -85.59490 | 33881 ft | 366 kts | 297° |
| 2026-05-07 21:26 | 35.46367 | -85.61920 | 33990 ft | 360 kts | 297° |
| 2026-05-07 21:27 | 35.48937 | -85.65934 | 34005 ft | 360 kts | 296° |
| 2026-05-07 21:27 | 35.52042 | -85.70789 | 34018 ft | 363 kts | 296° |
| 2026-05-07 21:28 | 35.55677 | -85.76475 | 34018 ft | 363 kts | 296° |
| 2026-05-07 21:28 | 35.58285 | -85.80559 | 34018 ft | 363 kts | 297° |
| 2026-05-07 21:29 | 35.61362 | -85.85381 | 34018 ft | 361 kts | 296° |
| 2026-05-07 21:29 | 35.64949 | -85.91010 | 34018 ft | 359 kts | 297° |
| 2026-05-07 21:30 | 35.67519 | -85.95054 | 34013 ft | 361 kts | 296° |
| 2026-05-07 21:30 | 35.70614 | -85.99927 | 34019 ft | 362 kts | 297° |
| 2026-05-07 21:31 | 35.73690 | -86.04771 | 34021 ft | 357 kts | 296° |
| 2026-05-07 21:31 | 35.77247 | -86.10390 | 34017 ft | 358 kts | 297° |
| 2026-05-07 21:32 | 35.79794 | -86.14417 | 34018 ft | 357 kts | 296° |
| 2026-05-07 21:32 | 35.83338 | -86.20031 | 34023 ft | 357 kts | 297° |
| 2026-05-07 21:33 | 35.85873 | -86.24046 | 34026 ft | 355 kts | 297° |
| 2026-05-07 21:33 | 35.89432 | -86.29700 | 34030 ft | 357 kts | 296° |
| 2026-05-07 21:34 | 35.91961 | -86.33721 | 34034 ft | 358 kts | 296° |
| 2026-05-07 21:34 | 35.94994 | -86.38548 | 34027 ft | 356 kts | 296° |
| 2026-05-07 21:35 | 35.98021 | -86.43374 | 34030 ft | 357 kts | 296° |
| 2026-05-07 21:35 | 36.01053 | -86.48214 | 34028 ft | 355 kts | 296° |
| 2026-05-07 21:36 | 36.04079 | -86.53053 | 34030 ft | 356 kts | 296° |
| 2026-05-07 21:36 | 36.07603 | -86.58697 | 34034 ft | 357 kts | 296° |
| 2026-05-07 21:37 | 36.10139 | -86.62765 | 34027 ft | 357 kts | 296° |
| 2026-05-07 21:37 | 36.12708 | -86.67824 | 34071 ft | 339 kts | 283° |
| 2026-05-07 21:38 | 36.13370 | -86.71558 | 34067 ft | 332 kts | 271° |
| 2026-05-07 21:38 | 36.13489 | -86.74392 | 34055 ft | 332 kts | 271° |
| 2026-05-07 21:38 | 36.13675 | -86.80074 | 34050 ft | 332 kts | 270° |
| 2026-05-07 21:39 | 36.13780 | -86.84811 | 34046 ft | 332 kts | 270° |
| 2026-05-07 21:39 | 36.13887 | -86.91457 | 34047 ft | 331 kts | 270° |
| 2026-05-07 21:40 | 36.13958 | -86.97156 | 34043 ft | 331 kts | 269° |
| 2026-05-07 21:40 | 36.14007 | -87.01865 | 34038 ft | 331 kts | 270° |
| 2026-05-07 21:41 | 36.14061 | -87.07582 | 34037 ft | 332 kts | 269° |
| 2026-05-07 21:41 | 36.14117 | -87.14216 | 34033 ft | 332 kts | 269° |
| 2026-05-07 21:42 | 36.14161 | -87.19952 | 34035 ft | 333 kts | 269° |
| 2026-05-07 21:42 | 36.14196 | -87.24731 | 34036 ft | 334 kts | 269° |
| 2026-05-07 21:43 | 36.14239 | -87.31352 | 34034 ft | 332 kts | 269° |
| 2026-05-07 21:43 | 36.14274 | -87.36987 | 34032 ft | 333 kts | 269° |
| 2026-05-07 21:44 | 36.14299 | -87.41682 | 34032 ft | 331 kts | 269° |
| 2026-05-07 21:44 | 36.14334 | -87.48382 | 34030 ft | 332 kts | 269° |
| 2026-05-07 21:45 | 36.14360 | -87.54058 | 34032 ft | 333 kts | 269° |
| 2026-05-07 21:45 | 36.14381 | -87.58843 | 34028 ft | 332 kts | 269° |
| 2026-05-07 21:46 | 36.14405 | -87.65501 | 34036 ft | 333 kts | 268° |
| 2026-05-07 21:46 | 36.14422 | -87.71197 | 34052 ft | 333 kts | 268° |
| 2026-05-07 21:47 | 36.14436 | -87.75957 | 34057 ft | 332 kts | 269° |
| 2026-05-07 21:47 | 36.14452 | -87.82657 | 34050 ft | 333 kts | 269° |
| 2026-05-07 21:48 | 36.14461 | -87.87392 | 34051 ft | 332 kts | 268° |
| 2026-05-07 21:48 | 36.14469 | -87.94031 | 34053 ft | 331 kts | 268° |
| 2026-05-07 21:49 | 36.14474 | -87.99719 | 34051 ft | 332 kts | 269° |
| 2026-05-07 21:49 | 36.14476 | -88.04475 | 34046 ft | 333 kts | 269° |
| 2026-05-07 21:50 | 36.14475 | -88.11129 | 34045 ft | 332 kts | 268° |
| 2026-05-07 21:50 | 36.14472 | -88.16818 | 34044 ft | 333 kts | 269° |
| 2026-05-07 21:51 | 36.14468 | -88.21613 | 34043 ft | 334 kts | 268° |
| 2026-05-07 21:51 | 36.14457 | -88.28278 | 34037 ft | 334 kts | 268° |
| 2026-05-07 21:52 | 36.14446 | -88.34026 | 34038 ft | 336 kts | 269° |
| 2026-05-07 21:52 | 36.14432 | -88.39742 | 34035 ft | 335 kts | 268° |
| 2026-05-07 21:53 | 36.14416 | -88.44553 | 34036 ft | 335 kts | 269° |
| 2026-05-07 21:53 | 36.14394 | -88.51257 | 34030 ft | 335 kts | 269° |
| 2026-05-07 21:54 | 36.14371 | -88.56999 | 34030 ft | 336 kts | 269° |
| 2026-05-07 21:54 | 36.14350 | -88.61793 | 34023 ft | 336 kts | 269° |
| 2026-05-07 21:55 | 36.14323 | -88.67574 | 34051 ft | 335 kts | 268° |
| 2026-05-07 21:55 | 36.14286 | -88.74286 | 34044 ft | 334 kts | 268° |
| 2026-05-07 21:56 | 36.14259 | -88.79061 | 34039 ft | 335 kts | 268° |
| 2026-05-07 21:56 | 36.14223 | -88.84806 | 34037 ft | 336 kts | 267° |
| 2026-05-07 21:57 | 36.14185 | -88.90578 | 34033 ft | 335 kts | 268° |
| 2026-05-07 21:57 | 36.14135 | -88.97276 | 34032 ft | 336 kts | 268° |
| 2026-05-07 21:58 | 36.14098 | -89.02097 | 34030 ft | 336 kts | 267° |
| 2026-05-07 21:58 | 36.14050 | -89.07862 | 34028 ft | 335 kts | 268° |
| 2026-05-07 21:59 | 36.14001 | -89.13585 | 34027 ft | 336 kts | 268° |
| 2026-05-07 21:59 | 36.13948 | -89.19368 | 34023 ft | 337 kts | 267° |
| 2026-05-07 22:00 | 36.13893 | -89.25137 | 34024 ft | 336 kts | 268° |
| 2026-05-07 22:00 | 36.13835 | -89.30917 | 34022 ft | 337 kts | 267° |
| 2026-05-07 22:01 | 36.13773 | -89.36695 | 34020 ft | 337 kts | 268° |
| 2026-05-07 22:01 | 36.13709 | -89.42492 | 34017 ft | 336 kts | 268° |
| 2026-05-07 22:02 | 36.13643 | -89.48249 | 34016 ft | 338 kts | 268° |
| 2026-05-07 22:02 | 36.13575 | -89.53909 | 34016 ft | 338 kts | 268° |
| 2026-05-07 22:03 | 36.13502 | -89.59731 | 34013 ft | 338 kts | 268° |
| 2026-05-07 22:03 | 36.13427 | -89.65524 | 34017 ft | 339 kts | 267° |
| 2026-05-07 22:04 | 36.13348 | -89.71351 | 34039 ft | 338 kts | 267° |
| 2026-05-07 22:04 | 36.13267 | -89.77144 | 34041 ft | 338 kts | 267° |
| 2026-05-07 22:05 | 36.13184 | -89.82934 | 34038 ft | 338 kts | 267° |
| 2026-05-07 22:05 | 36.13097 | -89.88728 | 34038 ft | 339 kts | 267° |
| 2026-05-07 22:06 | 36.12993 | -89.95518 | 34041 ft | 339 kts | 267° |
| 2026-05-07 22:06 | 36.12917 | -90.00363 | 34039 ft | 340 kts | 267° |
| 2026-05-07 22:07 | 36.12821 | -90.06105 | 34037 ft | 339 kts | 267° |
| 2026-05-07 22:07 | 36.12722 | -90.11989 | 34035 ft | 341 kts | 266° |
| 2026-05-07 22:08 | 36.12618 | -90.17791 | 34031 ft | 340 kts | 267° |
| 2026-05-07 22:08 | 36.12512 | -90.23656 | 34024 ft | 339 kts | 267° |
| 2026-05-07 22:09 | 36.12405 | -90.29452 | 34022 ft | 340 kts | 267° |
| 2026-05-07 22:09 | 36.12295 | -90.35273 | 34018 ft | 339 kts | 266° |
| 2026-05-07 22:10 | 36.12183 | -90.41111 | 34019 ft | 340 kts | 267° |
| 2026-05-07 22:10 | 36.12069 | -90.46923 | 34018 ft | 340 kts | 266° |
| 2026-05-07 22:11 | 36.11948 | -90.52767 | 34014 ft | 340 kts | 267° |
| 2026-05-07 22:11 | 36.11829 | -90.58580 | 34009 ft | 340 kts | 267° |
| 2026-05-07 22:12 | 36.11705 | -90.64404 | 34008 ft | 340 kts | 266° |
| 2026-05-07 22:12 | 36.11578 | -90.70240 | 34035 ft | 340 kts | 266° |
| 2026-05-07 22:13 | 36.11450 | -90.76080 | 34039 ft | 339 kts | 267° |
| 2026-05-07 22:13 | 36.11317 | -90.81898 | 34040 ft | 340 kts | 266° |
| 2026-05-07 22:14 | 36.11182 | -90.87714 | 34044 ft | 341 kts | 266° |
| 2026-05-07 22:14 | 36.11043 | -90.93594 | 34041 ft | 341 kts | 266° |
| 2026-05-07 22:15 | 36.11156 | -90.99458 | 34040 ft | 344 kts | 269° |
| 2026-05-07 22:15 | 36.11376 | -91.05312 | 34027 ft | 343 kts | 269° |
| 2026-05-07 22:16 | 36.11595 | -91.11201 | 34033 ft | 344 kts | 269° |
| 2026-05-07 22:16 | 36.11811 | -91.17102 | 34019 ft | 343 kts | 269° |
| 2026-05-07 22:17 | 36.12023 | -91.22974 | 34020 ft | 344 kts | 270° |
| 2026-05-07 22:17 | 36.12233 | -91.28878 | 34015 ft | 343 kts | 269° |
| 2026-05-07 22:18 | 36.12540 | -91.37691 | 34009 ft | 345 kts | 269° |
| 2026-05-07 22:19 | 36.12745 | -91.43649 | 34004 ft | 345 kts | 269° |
| 2026-05-07 22:19 | 36.12945 | -91.49547 | 34011 ft | 345 kts | 269° |
| 2026-05-07 22:20 | 36.13142 | -91.55462 | 34007 ft | 346 kts | 270° |
| 2026-05-07 22:20 | 36.13334 | -91.61386 | 34006 ft | 346 kts | 270° |
| 2026-05-07 22:21 | 36.13524 | -91.67342 | 34038 ft | 345 kts | 269° |
| 2026-05-07 22:21 | 36.13713 | -91.73261 | 34024 ft | 346 kts | 270° |
| 2026-05-07 22:22 | 36.13897 | -91.79134 | 34027 ft | 344 kts | 269° |
| 2026-05-07 22:22 | 36.14078 | -91.85059 | 34022 ft | 345 kts | 269° |
| 2026-05-07 22:23 | 36.14257 | -91.90977 | 34011 ft | 346 kts | 269° |
| 2026-05-07 22:23 | 36.14435 | -91.96931 | 34011 ft | 347 kts | 269° |
| 2026-05-07 22:24 | 36.14609 | -92.02895 | 34006 ft | 347 kts | 269° |
| 2026-05-07 22:24 | 36.14781 | -92.08888 | 34003 ft | 349 kts | 269° |
| 2026-05-07 22:25 | 36.14950 | -92.14877 | 34006 ft | 348 kts | 269° |
| 2026-05-07 22:25 | 36.15116 | -92.20847 | 34007 ft | 351 kts | 269° |
| 2026-05-07 22:26 | 36.15281 | -92.26884 | 34004 ft | 350 kts | 269° |
| 2026-05-07 22:26 | 36.15441 | -92.32880 | 34001 ft | 350 kts | 269° |
| 2026-05-07 22:27 | 36.15599 | -92.38883 | 34005 ft | 351 kts | 269° |
| 2026-05-07 22:27 | 36.15755 | -92.44936 | 34010 ft | 350 kts | 269° |
| 2026-05-07 22:28 | 36.15905 | -92.50941 | 34007 ft | 350 kts | 269° |
| 2026-05-07 22:28 | 36.16054 | -92.56934 | 34011 ft | 350 kts | 269° |
| 2026-05-07 22:29 | 36.16200 | -92.62953 | 34012 ft | 350 kts | 269° |
| 2026-05-07 22:29 | 36.16342 | -92.68949 | 34034 ft | 350 kts | 268° |
| 2026-05-07 22:30 | 36.16482 | -92.74995 | 34034 ft | 351 kts | 269° |
| 2026-05-07 22:30 | 36.16617 | -92.80931 | 34023 ft | 350 kts | 268° |
| 2026-05-07 22:31 | 36.16750 | -92.86931 | 34029 ft | 351 kts | 269° |
| 2026-05-07 22:31 | 36.16882 | -92.92973 | 34028 ft | 350 kts | 268° |
| 2026-05-07 22:32 | 36.17011 | -92.99031 | 34028 ft | 352 kts | 268° |
| 2026-05-07 22:32 | 36.17136 | -93.05051 | 34030 ft | 352 kts | 268° |
| 2026-05-07 22:33 | 36.17257 | -93.11043 | 34037 ft | 352 kts | 268° |
| 2026-05-07 22:33 | 36.17376 | -93.17042 | 34036 ft | 352 kts | 269° |
| 2026-05-07 22:34 | 36.17493 | -93.23135 | 34039 ft | 353 kts | 268° |
| 2026-05-07 22:34 | 36.17606 | -93.29183 | 34034 ft | 353 kts | 269° |
| 2026-05-07 22:35 | 36.17716 | -93.35264 | 34028 ft | 354 kts | 268° |
| 2026-05-07 22:35 | 36.17824 | -93.41248 | 34024 ft | 354 kts | 268° |
| 2026-05-07 22:36 | 36.17926 | -93.47289 | 34023 ft | 355 kts | 269° |
| 2026-05-07 22:36 | 36.18028 | -93.53351 | 34019 ft | 355 kts | 269° |
| 2026-05-07 22:37 | 36.18127 | -93.59454 | 34018 ft | 355 kts | 269° |
| 2026-05-07 22:37 | 36.18223 | -93.65554 | 34017 ft | 355 kts | 268° |
| 2026-05-07 22:38 | 36.18316 | -93.71698 | 34042 ft | 357 kts | 268° |
| 2026-05-07 22:38 | 36.18405 | -93.77723 | 34038 ft | 355 kts | 268° |
| 2026-05-07 22:39 | 36.18491 | -93.83791 | 34045 ft | 357 kts | 268° |
| 2026-05-07 22:39 | 36.18574 | -93.89928 | 34047 ft | 355 kts | 268° |
| 2026-05-07 22:40 | 36.18655 | -93.96033 | 34041 ft | 356 kts | 268° |
| 2026-05-07 22:40 | 36.18733 | -94.02146 | 34043 ft | 356 kts | 268° |
| 2026-05-07 22:41 | 36.18807 | -94.08294 | 34042 ft | 357 kts | 268° |
| 2026-05-07 22:41 | 36.18890 | -94.15449 | 34041 ft | 357 kts | 268° |
| 2026-05-07 22:42 | 36.18957 | -94.21582 | 34030 ft | 357 kts | 268° |
| 2026-05-07 22:42 | 36.19024 | -94.27748 | 34033 ft | 357 kts | 268° |
| 2026-05-07 22:43 | 36.19073 | -94.32870 | 34033 ft | 358 kts | 268° |
| 2026-05-07 22:43 | 36.19133 | -94.39030 | 34027 ft | 359 kts | 268° |
| 2026-05-07 22:44 | 36.19190 | -94.45230 | 34028 ft | 359 kts | 268° |
| 2026-05-07 22:44 | 36.19242 | -94.51328 | 34032 ft | 358 kts | 268° |
| 2026-05-07 22:45 | 36.19292 | -94.57567 | 34020 ft | 361 kts | 268° |
| 2026-05-07 22:45 | 36.19339 | -94.63741 | 34013 ft | 361 kts | 268° |
| 2026-05-07 22:46 | 36.19382 | -94.69979 | 34029 ft | 361 kts | 268° |
| 2026-05-07 22:46 | 36.19423 | -94.76181 | 34026 ft | 361 kts | 268° |
| 2026-05-07 22:47 | 36.19460 | -94.82389 | 34012 ft | 362 kts | 267° |
| 2026-05-07 22:47 | 36.19499 | -94.89635 | 34008 ft | 362 kts | 268° |
| 2026-05-07 22:48 | 36.19524 | -94.94807 | 34009 ft | 362 kts | 268° |
| 2026-05-07 22:48 | 36.19555 | -95.01822 | 33999 ft | 364 kts | 267° |
| 2026-05-07 22:49 | 36.19575 | -95.07037 | 34000 ft | 364 kts | 267° |
| 2026-05-07 22:49 | 36.19597 | -95.13282 | 33993 ft | 363 kts | 268° |
| 2026-05-07 22:50 | 36.19617 | -95.20595 | 33989 ft | 364 kts | 267° |
| 2026-05-07 22:50 | 36.19630 | -95.25811 | 33986 ft | 365 kts | 267° |
| 2026-05-07 22:51 | 36.19642 | -95.32099 | 33995 ft | 365 kts | 267° |
| 2026-05-07 22:51 | 36.19650 | -95.38364 | 33989 ft | 363 kts | 268° |
| 2026-05-07 22:52 | 36.19655 | -95.44605 | 34003 ft | 364 kts | 267° |
| 2026-05-07 22:52 | 36.19656 | -95.50890 | 33998 ft | 365 kts | 267° |
| 2026-05-07 22:53 | 36.19655 | -95.58224 | 34000 ft | 365 kts | 268° |
| 2026-05-07 22:53 | 36.19651 | -95.63492 | 33989 ft | 366 kts | 267° |
| 2026-05-07 22:54 | 36.19642 | -95.69793 | 34012 ft | 366 kts | 266° |
| 2026-05-07 22:54 | 36.19403 | -95.77096 | 34020 ft | 364 kts | 258° |
| 2026-05-07 22:55 | 36.17929 | -95.81958 | 34019 ft | 369 kts | 245° |
| 2026-05-07 22:55 | 36.15144 | -95.88498 | 34008 ft | 367 kts | 245° |
| 2026-05-07 22:56 | 36.13129 | -95.93109 | 34002 ft | 367 kts | 245° |
| 2026-05-07 22:56 | 36.10245 | -95.99603 | 33999 ft | 369 kts | 244° |
| 2026-05-07 22:57 | 36.08183 | -96.04205 | 34001 ft | 370 kts | 245° |
| 2026-05-07 22:57 | 36.05701 | -96.09721 | 33994 ft | 368 kts | 245° |
| 2026-05-07 22:58 | 36.02810 | -96.16123 | 33992 ft | 367 kts | 244° |
| 2026-05-07 22:58 | 36.00725 | -96.20729 | 33980 ft | 368 kts | 244° |
| 2026-05-07 22:59 | 35.98241 | -96.26208 | 33988 ft | 368 kts | 245° |
| 2026-05-07 22:59 | 35.95733 | -96.31729 | 33976 ft | 368 kts | 244° |
| 2026-05-07 23:00 | 35.93233 | -96.37220 | 33976 ft | 367 kts | 244° |
| 2026-05-07 23:00 | 35.90725 | -96.42722 | 33971 ft | 368 kts | 245° |
| 2026-05-07 23:01 | 35.88229 | -96.48190 | 33978 ft | 367 kts | 244° |
| 2026-05-07 23:01 | 35.85724 | -96.53667 | 33977 ft | 367 kts | 245° |
| 2026-05-07 23:02 | 35.83213 | -96.59147 | 33972 ft | 369 kts | 244° |
| 2026-05-07 23:02 | 35.80708 | -96.64606 | 33976 ft | 366 kts | 244° |
| 2026-05-07 23:03 | 35.77783 | -96.70968 | 34011 ft | 367 kts | 243° |
| 2026-05-07 23:03 | 35.75694 | -96.75506 | 34014 ft | 367 kts | 244° |
| 2026-05-07 23:04 | 35.73166 | -96.80990 | 34011 ft | 367 kts | 243° |
| 2026-05-07 23:04 | 35.70666 | -96.86402 | 34009 ft | 366 kts | 244° |
| 2026-05-07 23:05 | 35.68152 | -96.91837 | 33998 ft | 368 kts | 243° |
| 2026-05-07 23:05 | 35.65616 | -96.97313 | 34001 ft | 366 kts | 243° |
| 2026-05-07 23:06 | 35.63102 | -97.02729 | 33995 ft | 366 kts | 244° |
| 2026-05-07 23:06 | 35.60571 | -97.08174 | 33983 ft | 368 kts | 244° |
| 2026-05-07 23:07 | 35.57614 | -97.14525 | 33983 ft | 367 kts | 244° |
| 2026-05-07 23:07 | 35.55113 | -97.19891 | 33984 ft | 368 kts | 243° |
| 2026-05-07 23:08 | 35.52962 | -97.24493 | 34000 ft | 367 kts | 243° |
| 2026-05-07 23:08 | 35.50435 | -97.29894 | 33999 ft | 367 kts | 244° |
| 2026-05-07 23:09 | 35.47887 | -97.35334 | 33992 ft | 367 kts | 243° |
| 2026-05-07 23:09 | 35.44931 | -97.41634 | 33996 ft | 367 kts | 243° |
| 2026-05-07 23:10 | 35.42377 | -97.47065 | 33992 ft | 367 kts | 243° |
| 2026-05-07 23:10 | 35.40231 | -97.51622 | 33987 ft | 368 kts | 243° |
| 2026-05-07 23:11 | 35.37672 | -97.57052 | 33990 ft | 368 kts | 243° |
| 2026-05-07 23:11 | 35.36334 | -97.60857 | 34000 ft | 365 kts | 255° |
| 2026-05-07 23:11 | 35.35997 | -97.62886 | 34001 ft | 366 kts | 261° |
| 2026-05-07 23:12 | 35.35800 | -97.69167 | 34002 ft | 370 kts | 264° |
| 2026-05-07 23:12 | 35.35664 | -97.76515 | 34005 ft | 370 kts | 265° |
| 2026-05-07 23:13 | 35.35577 | -97.81730 | 33999 ft | 370 kts | 265° |
| 2026-05-07 23:13 | 35.35459 | -97.89037 | 34004 ft | 369 kts | 265° |
| 2026-05-07 23:14 | 35.35358 | -97.95204 | 33999 ft | 372 kts | 265° |
| 2026-05-07 23:14 | 35.35271 | -98.00466 | 33985 ft | 372 kts | 265° |
| 2026-05-07 23:15 | 35.35147 | -98.07830 | 33983 ft | 371 kts | 265° |
| 2026-05-07 23:15 | 35.35055 | -98.13090 | 33984 ft | 372 kts | 265° |
| 2026-05-07 23:16 | 35.34922 | -98.20474 | 33978 ft | 373 kts | 265° |
| 2026-05-07 23:16 | 35.34826 | -98.25731 | 33979 ft | 373 kts | 265° |
| 2026-05-07 23:17 | 35.34707 | -98.32081 | 33983 ft | 372 kts | 264° |
| 2026-05-07 23:17 | 35.34562 | -98.39471 | 33983 ft | 375 kts | 265° |
| 2026-05-07 23:18 | 35.34457 | -98.44799 | 33980 ft | 375 kts | 265° |
| 2026-05-07 23:18 | 35.34305 | -98.52213 | 33968 ft | 375 kts | 265° |
| 2026-05-07 23:19 | 35.34193 | -98.57534 | 33970 ft | 376 kts | 265° |
| 2026-05-07 23:19 | 35.34034 | -98.64932 | 33983 ft | 374 kts | 265° |
| 2026-05-07 23:20 | 35.33915 | -98.70284 | 33989 ft | 376 kts | 265° |
| 2026-05-07 23:20 | 35.33747 | -98.77738 | 33989 ft | 377 kts | 264° |
| 2026-05-07 23:21 | 35.33625 | -98.83018 | 33988 ft | 376 kts | 265° |
| 2026-05-07 23:21 | 35.33474 | -98.89417 | 33983 ft | 377 kts | 264° |
| 2026-05-07 23:22 | 35.33318 | -98.95824 | 33991 ft | 377 kts | 265° |
| 2026-05-07 23:22 | 35.33161 | -99.02196 | 33996 ft | 377 kts | 264° |
| 2026-05-07 23:23 | 35.32972 | -99.09683 | 34000 ft | 377 kts | 265° |
| 2026-05-07 23:23 | 35.32834 | -99.14999 | 33993 ft | 379 kts | 264° |
| 2026-05-07 23:24 | 35.32636 | -99.22506 | 33991 ft | 379 kts | 264° |
| 2026-05-07 23:24 | 35.32492 | -99.27840 | 33997 ft | 379 kts | 265° |
| 2026-05-07 23:25 | 35.32317 | -99.34235 | 33992 ft | 380 kts | 265° |
| 2026-05-07 23:25 | 35.32136 | -99.40713 | 33984 ft | 381 kts | 264° |
| 2026-05-07 23:26 | 35.31953 | -99.47147 | 33981 ft | 380 kts | 265° |
| 2026-05-07 23:26 | 35.31766 | -99.53617 | 33985 ft | 381 kts | 264° |
| 2026-05-07 23:27 | 35.31477 | -99.63333 | 33971 ft | 382 kts | 264° |
| 2026-05-07 23:27 | 35.31247 | -99.70905 | 33993 ft | 382 kts | 264° |
| 2026-05-07 23:28 | 35.31079 | -99.76323 | 33992 ft | 382 kts | 264° |
| 2026-05-07 23:28 | 35.30877 | -99.82776 | 33995 ft | 383 kts | 264° |
| 2026-05-07 23:29 | 35.30669 | -99.89257 | 33982 ft | 384 kts | 264° |
| 2026-05-07 23:29 | 35.30457 | -99.95797 | 33997 ft | 383 kts | 264° |
| 2026-05-07 23:30 | 35.30243 | -100.02296 | 33993 ft | 384 kts | 264° |
| 2026-05-07 23:30 | 35.30025 | -100.08775 | 33991 ft | 384 kts | 264° |
| 2026-05-07 23:31 | 35.29804 | -100.15283 | 33987 ft | 386 kts | 264° |
| 2026-05-07 23:31 | 35.29577 | -100.21850 | 33993 ft | 385 kts | 264° |
| 2026-05-07 23:32 | 35.29347 | -100.28374 | 33995 ft | 385 kts | 264° |
| 2026-05-07 23:32 | 35.29075 | -100.35992 | 34008 ft | 385 kts | 264° |
| 2026-05-07 23:33 | 35.28876 | -100.41461 | 34008 ft | 386 kts | 264° |
| 2026-05-07 23:33 | 35.28593 | -100.49141 | 34014 ft | 388 kts | 264° |
| 2026-05-07 23:34 | 35.28346 | -100.55750 | 34011 ft | 389 kts | 264° |
| 2026-05-07 23:34 | 35.28137 | -100.61243 | 34011 ft | 388 kts | 264° |
| 2026-05-07 23:35 | 35.27840 | -100.68952 | 34036 ft | 391 kts | 264° |
| 2026-05-07 23:35 | 35.27627 | -100.74435 | 34032 ft | 391 kts | 264° |
| 2026-05-07 23:36 | 35.27365 | -100.81052 | 34032 ft | 391 kts | 264° |
| 2026-05-07 23:36 | 35.27099 | -100.87712 | 34034 ft | 391 kts | 264° |
| 2026-05-07 23:37 | 35.26831 | -100.94327 | 34039 ft | 390 kts | 263° |
| 2026-05-07 23:37 | 35.26558 | -101.00946 | 34036 ft | 394 kts | 264° |
| 2026-05-07 23:38 | 35.26278 | -101.07658 | 34036 ft | 393 kts | 264° |
| 2026-05-07 23:38 | 35.25996 | -101.14320 | 34040 ft | 396 kts | 264° |
| 2026-05-07 23:39 | 35.25709 | -101.21021 | 34037 ft | 396 kts | 264° |
| 2026-05-07 23:39 | 35.25368 | -101.28891 | 34038 ft | 396 kts | 264° |
| 2026-05-07 23:40 | 35.25122 | -101.34477 | 34037 ft | 397 kts | 264° |
| 2026-05-07 23:40 | 35.24823 | -101.41190 | 34035 ft | 397 kts | 264° |
| 2026-05-07 23:41 | 35.24469 | -101.49070 | 34035 ft | 398 kts | 264° |
| 2026-05-07 23:41 | 35.24162 | -101.55788 | 34035 ft | 396 kts | 263° |
| 2026-05-07 23:42 | 35.23848 | -101.62565 | 34040 ft | 401 kts | 263° |
| 2026-05-07 23:42 | 35.23582 | -101.68227 | 34055 ft | 399 kts | 263° |
| 2026-05-07 23:43 | 35.23399 | -101.74972 | 34055 ft | 400 kts | 265° |
| 2026-05-07 23:43 | 35.23259 | -101.81811 | 34053 ft | 404 kts | 265° |
| 2026-05-07 23:44 | 35.23115 | -101.88661 | 34053 ft | 403 kts | 265° |
| 2026-05-07 23:44 | 35.22965 | -101.95507 | 34051 ft | 403 kts | 265° |
| 2026-05-07 23:45 | 35.22813 | -102.02361 | 34055 ft | 403 kts | 265° |
| 2026-05-07 23:45 | 35.22655 | -102.09177 | 34056 ft | 406 kts | 265° |
| 2026-05-07 23:46 | 35.22467 | -102.17200 | 34057 ft | 405 kts | 265° |
| 2026-05-07 23:46 | 35.22302 | -102.24076 | 34062 ft | 404 kts | 265° |
| 2026-05-07 23:47 | 35.22159 | -102.29808 | 34071 ft | 406 kts | 265° |
| 2026-05-07 23:47 | 35.21957 | -102.37807 | 34062 ft | 406 kts | 265° |
| 2026-05-07 23:48 | 35.21807 | -102.43563 | 34064 ft | 407 kts | 265° |
| 2026-05-07 23:48 | 35.21626 | -102.50448 | 34062 ft | 406 kts | 265° |
| 2026-05-07 23:49 | 35.21441 | -102.57358 | 34057 ft | 408 kts | 265° |
| 2026-05-07 23:49 | 35.21251 | -102.64262 | 34054 ft | 409 kts | 265° |
| 2026-05-07 23:50 | 35.21056 | -102.71224 | 34077 ft | 409 kts | 265° |
| 2026-05-07 23:50 | 35.20857 | -102.78163 | 34075 ft | 411 kts | 265° |
| 2026-05-07 23:51 | 35.20652 | -102.85153 | 34073 ft | 410 kts | 265° |
| 2026-05-07 23:51 | 35.20409 | -102.93289 | 34069 ft | 413 kts | 265° |
| 2026-05-07 23:52 | 35.20196 | -103.00291 | 34065 ft | 414 kts | 265° |
| 2026-05-07 23:52 | 35.20016 | -103.06127 | 34071 ft | 414 kts | 265° |
| 2026-05-07 23:53 | 35.19791 | -103.13243 | 34072 ft | 417 kts | 265° |
| 2026-05-07 23:53 | 35.19525 | -103.21503 | 34072 ft | 417 kts | 266° |
| 2026-05-07 23:54 | 35.19329 | -103.27464 | 34079 ft | 420 kts | 266° |
| 2026-05-07 23:54 | 35.19091 | -103.34654 | 34071 ft | 423 kts | 266° |
| 2026-05-07 23:55 | 35.18807 | -103.43027 | 34072 ft | 425 kts | 266° |
| 2026-05-07 23:55 | 35.18559 | -103.50223 | 34056 ft | 425 kts | 266° |
| 2026-05-07 23:56 | 35.18348 | -103.56239 | 34050 ft | 425 kts | 266° |
| 2026-05-07 23:56 | 35.18109 | -103.63490 | 34041 ft | 428 kts | 267° |
| 2026-05-07 23:57 | 35.17889 | -103.70734 | 34052 ft | 430 kts | 267° |
| 2026-05-07 23:57 | 35.17663 | -103.78072 | 34075 ft | 432 kts | 267° |
| 2026-05-07 23:58 | 35.17431 | -103.85437 | 34082 ft | 434 kts | 267° |
| 2026-05-07 23:58 | 35.17196 | -103.92780 | 34091 ft | 434 kts | 267° |
| 2026-05-07 23:59 | 35.16953 | -104.00170 | 34096 ft | 436 kts | 267° |
| 2026-05-07 23:59 | 35.16705 | -104.07579 | 34103 ft | 439 kts | 268° |
| 2026-05-08 00:00 | 35.16452 | -104.15044 | 34097 ft | 438 kts | 268° |
| 2026-05-08 00:00 | 35.16195 | -104.22484 | 34102 ft | 440 kts | 268° |
| 2026-05-08 00:01 | 35.15930 | -104.29999 | 34099 ft | 443 kts | 268° |
| 2026-05-08 00:01 | 35.15662 | -104.37516 | 34102 ft | 441 kts | 268° |
| 2026-05-08 00:02 | 35.15389 | -104.44975 | 34102 ft | 444 kts | 268° |
| 2026-05-08 00:02 | 35.15109 | -104.52535 | 34107 ft | 445 kts | 268° |
| 2026-05-08 00:03 | 35.14825 | -104.60077 | 34117 ft | 447 kts | 268° |
| 2026-05-08 00:03 | 35.14486 | -104.68900 | 34123 ft | 446 kts | 267° |
| 2026-05-08 00:04 | 35.14240 | -104.75197 | 34131 ft | 449 kts | 268° |
| 2026-05-08 00:04 | 35.13939 | -104.82825 | 34142 ft | 450 kts | 267° |
| 2026-05-08 00:05 | 35.13633 | -104.90442 | 34145 ft | 452 kts | 267° |
| 2026-05-08 00:05 | 35.13268 | -104.99358 | 34149 ft | 452 kts | 268° |
| 2026-05-08 00:06 | 35.13001 | -105.05775 | 34155 ft | 453 kts | 268° |
| 2026-05-08 00:06 | 35.12678 | -105.13454 | 34157 ft | 454 kts | 268° |
| 2026-05-08 00:07 | 35.12347 | -105.21204 | 34169 ft | 456 kts | 268° |
| 2026-05-08 00:07 | 35.12012 | -105.28924 | 34176 ft | 456 kts | 268° |
| 2026-05-08 00:08 | 35.11671 | -105.36674 | 34177 ft | 457 kts | 268° |
| 2026-05-08 00:08 | 35.11269 | -105.45676 | 34192 ft | 458 kts | 268° |
| 2026-05-08 00:09 | 35.10976 | -105.52128 | 34200 ft | 460 kts | 268° |
| 2026-05-08 00:09 | 35.10556 | -105.61264 | 34204 ft | 462 kts | 268° |
| 2026-05-08 00:10 | 35.10189 | -105.69116 | 34214 ft | 462 kts | 268° |
| 2026-05-08 00:10 | 35.09883 | -105.75605 | 34219 ft | 464 kts | 268° |
| 2026-05-08 00:11 | 35.09505 | -105.83510 | 34220 ft | 467 kts | 268° |
| 2026-05-08 00:11 | 35.09057 | -105.92719 | 34215 ft | 468 kts | 268° |
| 2026-05-08 00:12 | 35.08731 | -105.99349 | 34205 ft | 468 kts | 268° |
| 2026-05-08 00:12 | 35.08337 | -106.07245 | 34203 ft | 466 kts | 268° |
| 2026-05-08 00:13 | 35.07937 | -106.15180 | 34207 ft | 469 kts | 268° |
| 2026-05-08 00:13 | 35.07463 | -106.24428 | 34191 ft | 470 kts | 268° |
| 2026-05-08 00:14 | 35.07119 | -106.31073 | 34173 ft | 472 kts | 268° |
| 2026-05-08 00:14 | 35.06697 | -106.39110 | 34167 ft | 473 kts | 268° |
| 2026-05-08 00:15 | 35.06269 | -106.47163 | 34142 ft | 472 kts | 269° |
| 2026-05-08 00:15 | 35.05764 | -106.56535 | 34132 ft | 473 kts | 268° |
| 2026-05-08 00:16 | 35.05327 | -106.64564 | 34121 ft | 474 kts | 269° |
| 2026-05-08 00:16 | 35.04954 | -106.71305 | 34114 ft | 474 kts | 268° |
| 2026-05-08 00:17 | 35.04442 | -106.79382 | 34104 ft | 479 kts | 263° |
| 2026-05-08 00:17 | 35.02720 | -106.87187 | 34107 ft | 482 kts | 254° |
| 2026-05-08 00:18 | 35.00640 | -106.94971 | 34112 ft | 483 kts | 253° |
| 2026-05-08 00:18 | 34.98571 | -107.02535 | 34134 ft | 482 kts | 253° |
| 2026-05-08 00:19 | 34.96437 | -107.10244 | 34166 ft | 483 kts | 253° |
| 2026-05-08 00:19 | 34.93924 | -107.19270 | 34179 ft | 480 kts | 253° |
| 2026-05-08 00:20 | 34.91777 | -107.26952 | 34199 ft | 483 kts | 253° |
| 2026-05-08 00:20 | 34.89987 | -107.33335 | 34204 ft | 484 kts | 253° |
| 2026-05-08 00:21 | 34.87783 | -107.41170 | 34220 ft | 485 kts | 253° |
| 2026-05-08 00:21 | 34.85234 | -107.50211 | 34227 ft | 484 kts | 253° |
| 2026-05-08 00:22 | 34.83049 | -107.57939 | 34235 ft | 483 kts | 253° |
| 2026-05-08 00:22 | 34.80862 | -107.65646 | 34256 ft | 486 kts | 252° |
| 2026-05-08 00:23 | 34.79016 | -107.72138 | 34275 ft | 486 kts | 252° |
| 2026-05-08 00:23 | 34.76797 | -107.79923 | 34291 ft | 487 kts | 252° |
| 2026-05-08 00:24 | 34.74577 | -107.87687 | 34281 ft | 487 kts | 253° |
| 2026-05-08 00:24 | 34.72331 | -107.95525 | 34285 ft | 489 kts | 253° |
| 2026-05-08 00:25 | 34.70091 | -108.03314 | 34292 ft | 488 kts | 252° |
| 2026-05-08 00:25 | 34.67845 | -108.11103 | 34294 ft | 489 kts | 252° |
| 2026-05-08 00:26 | 34.65585 | -108.18924 | 34295 ft | 491 kts | 253° |
| 2026-05-08 00:26 | 34.63334 | -108.26690 | 34294 ft | 490 kts | 253° |
| 2026-05-08 00:27 | 34.61063 | -108.34504 | 34293 ft | 492 kts | 252° |
| 2026-05-08 00:27 | 34.58780 | -108.42336 | 34288 ft | 492 kts | 253° |
| 2026-05-08 00:28 | 34.56488 | -108.50179 | 34290 ft | 495 kts | 253° |
| 2026-05-08 00:28 | 34.53800 | -108.59347 | 34286 ft | 498 kts | 253° |
| 2026-05-08 00:29 | 34.51464 | -108.67297 | 34274 ft | 497 kts | 252° |
| 2026-05-08 00:29 | 34.49132 | -108.75208 | 34273 ft | 498 kts | 252° |
| 2026-05-08 00:30 | 34.46798 | -108.83102 | 34272 ft | 497 kts | 252° |
| 2026-05-08 00:30 | 34.44845 | -108.89693 | 34284 ft | 499 kts | 252° |
| 2026-05-08 00:31 | 34.42095 | -108.98946 | 34289 ft | 501 kts | 252° |
| 2026-05-08 00:31 | 34.39723 | -109.06906 | 34283 ft | 501 kts | 252° |
| 2026-05-08 00:32 | 34.37742 | -109.13534 | 34290 ft | 501 kts | 252° |
| 2026-05-08 00:32 | 34.35376 | -109.21434 | 34266 ft | 499 kts | 252° |
| 2026-05-08 00:33 | 34.32966 | -109.29458 | 34247 ft | 503 kts | 252° |
| 2026-05-08 00:33 | 34.30570 | -109.37414 | 34251 ft | 503 kts | 252° |
| 2026-05-08 00:34 | 34.28177 | -109.45336 | 34261 ft | 505 kts | 252° |
| 2026-05-08 00:34 | 34.25745 | -109.53366 | 34262 ft | 504 kts | 252° |
| 2026-05-08 00:35 | 34.23333 | -109.61312 | 34236 ft | 503 kts | 252° |
| 2026-05-08 00:35 | 34.20903 | -109.69293 | 34276 ft | 508 kts | 252° |
| 2026-05-08 00:36 | 34.18459 | -109.77299 | 34269 ft | 507 kts | 252° |
| 2026-05-08 00:36 | 34.16010 | -109.85297 | 34253 ft | 507 kts | 252° |
| 2026-05-08 00:37 | 34.13563 | -109.93269 | 34251 ft | 506 kts | 252° |
| 2026-05-08 00:38 | 34.09869 | -110.05262 | 34231 ft | 510 kts | 252° |
| 2026-05-08 00:38 | 34.06985 | -110.14596 | 34223 ft | 509 kts | 252° |
| 2026-05-08 00:39 | 34.04922 | -110.21255 | 34228 ft | 512 kts | 252° |
| 2026-05-08 00:39 | 34.02423 | -110.29298 | 34212 ft | 511 kts | 252° |
| 2026-05-08 00:40 | 33.99936 | -110.37279 | 34205 ft | 511 kts | 252° |
| 2026-05-08 00:40 | 33.97021 | -110.46614 | 34198 ft | 511 kts | 252° |
| 2026-05-08 00:41 | 33.94922 | -110.53316 | 34182 ft | 511 kts | 252° |
| 2026-05-08 00:41 | 33.92397 | -110.61356 | 34218 ft | 514 kts | 252° |
| 2026-05-08 00:42 | 33.89865 | -110.69392 | 34161 ft | 511 kts | 252° |
| 2026-05-08 00:42 | 33.87329 | -110.77433 | 34151 ft | 512 kts | 251° |
| 2026-05-08 00:43 | 33.84376 | -110.86759 | 34130 ft | 512 kts | 252° |
| 2026-05-08 00:43 | 33.82262 | -110.93419 | 34112 ft | 514 kts | 251° |
| 2026-05-08 00:44 | 33.79693 | -111.01495 | 34094 ft | 514 kts | 251° |
| 2026-05-08 00:44 | 33.76722 | -111.10808 | 34065 ft | 515 kts | 251° |
| 2026-05-08 00:45 | 33.74573 | -111.17519 | 34038 ft | 515 kts | 252° |
| 2026-05-08 00:45 | 33.71993 | -111.25566 | 34025 ft | 513 kts | 252° |
| 2026-05-08 00:46 | 33.68983 | -111.34927 | 34032 ft | 517 kts | 252° |
| 2026-05-08 00:46 | 33.66832 | -111.41599 | 34010 ft | 516 kts | 252° |
| 2026-05-08 00:47 | 33.64226 | -111.49661 | 33971 ft | 518 kts | 252° |
| 2026-05-08 00:47 | 33.61214 | -111.58951 | 33940 ft | 517 kts | 252° |
| 2026-05-08 00:48 | 33.58593 | -111.67016 | 33923 ft | 517 kts | 251° |
| 2026-05-08 00:48 | 33.55984 | -111.75021 | 33902 ft | 519 kts | 251° |
| 2026-05-08 00:49 | 33.53777 | -111.81777 | 33890 ft | 519 kts | 252° |
| 2026-05-08 00:49 | 33.51137 | -111.89841 | 33889 ft | 519 kts | 251° |
| 2026-05-08 00:50 | 33.48021 | -111.99328 | 33877 ft | 521 kts | 251° |
| 2026-05-08 00:50 | 33.45783 | -112.06127 | 33872 ft | 520 kts | 251° |
| 2026-05-08 00:51 | 33.43123 | -112.14188 | 33884 ft | 520 kts | 252° |
| 2026-05-08 00:51 | 33.40462 | -112.22231 | 33898 ft | 518 kts | 252° |
| 2026-05-08 00:52 | 33.37798 | -112.30263 | 33908 ft | 518 kts | 252° |
| 2026-05-08 00:52 | 33.34708 | -112.39555 | 33901 ft | 518 kts | 252° |
| 2026-05-08 00:53 | 33.32476 | -112.46246 | 33889 ft | 518 kts | 252° |
| 2026-05-08 00:53 | 33.29810 | -112.54224 | 33869 ft | 516 kts | 252° |
| 2026-05-08 00:54 | 33.26698 | -112.63509 | 33866 ft | 516 kts | 252° |
| 2026-05-08 00:54 | 33.24030 | -112.71452 | 33858 ft | 516 kts | 251° |
| 2026-05-08 00:55 | 33.21788 | -112.78104 | 33856 ft | 515 kts | 252° |
| 2026-05-08 00:55 | 33.18672 | -112.87337 | 33865 ft | 517 kts | 251° |
| 2026-05-08 00:56 | 33.16443 | -112.93920 | 33865 ft | 517 kts | 252° |
| 2026-05-08 00:56 | 33.13299 | -113.03181 | 33867 ft | 514 kts | 251° |
| 2026-05-08 00:57 | 33.10603 | -113.11108 | 33867 ft | 515 kts | 251° |
| 2026-05-08 00:57 | 33.08356 | -113.17696 | 33861 ft | 513 kts | 251° |
| 2026-05-08 00:58 | 33.05671 | -113.25552 | 33848 ft | 513 kts | 252° |
| 2026-05-08 00:58 | 33.02536 | -113.34701 | 33834 ft | 514 kts | 252° |
| 2026-05-08 00:59 | 33.00277 | -113.41278 | 33839 ft | 512 kts | 252° |
| 2026-05-08 00:59 | 32.97598 | -113.49057 | 33847 ft | 513 kts | 252° |
| 2026-05-08 01:00 | 32.94884 | -113.56918 | 33850 ft | 509 kts | 251° |
| 2026-05-08 01:00 | 32.92193 | -113.64696 | 33857 ft | 507 kts | 252° |
| 2026-05-08 01:01 | 32.89484 | -113.72510 | 33852 ft | 509 kts | 251° |
| 2026-05-08 01:01 | 32.86794 | -113.80250 | 33855 ft | 507 kts | 251° |
| 2026-05-08 01:02 | 32.83662 | -113.89233 | 33860 ft | 508 kts | 251° |
| 2026-05-08 01:02 | 32.80941 | -113.97022 | 33857 ft | 507 kts | 251° |
| 2026-05-08 01:03 | 32.78739 | -114.03510 | 33852 ft | 503 kts | 256° |
| 2026-05-08 01:03 | 32.77578 | -114.12857 | 33863 ft | 485 kts | 277° |
| 2026-05-08 01:04 | 32.77993 | -114.20869 | 33851 ft | 484 kts | 278° |
| 2026-05-08 01:04 | 32.78288 | -114.27503 | 33856 ft | 483 kts | 278° |
| 2026-05-08 01:05 | 32.78745 | -114.36826 | 33842 ft | 479 kts | 283° |
| 2026-05-08 01:05 | 32.80084 | -114.43175 | 33847 ft | 473 kts | 293° |
| 2026-05-08 01:06 | 32.82279 | -114.51316 | 33825 ft | 471 kts | 293° |
| 2026-05-08 01:06 | 32.84236 | -114.58522 | 33818 ft | 447 kts | 293° |
| 2026-05-08 01:07 | 32.86155 | -114.65538 | 33831 ft | 448 kts | 292° |
| 2026-05-08 01:07 | 32.87693 | -114.72850 | 33841 ft | 466 kts | 279° |
| 2026-05-08 01:08 | 32.87720 | -114.80650 | 33552 ft | 485 kts | 273° |
| 2026-05-08 01:08 | 32.87673 | -114.83318 | 33380 ft | 480 kts | 273° |
| 2026-05-08 01:08 | 32.87594 | -114.87254 | 32971 ft | 470 kts | 273° |
| 2026-05-08 01:08 | 32.87515 | -114.91106 | 32326 ft | 467 kts | 273° |
| 2026-05-08 01:09 | 32.87431 | -114.94964 | 31709 ft | 465 kts | 273° |
| 2026-05-08 01:09 | 32.87318 | -115.00065 | 30928 ft | 468 kts | 273° |
| 2026-05-08 01:09 | 32.87257 | -115.02701 | 30534 ft | 469 kts | 273° |
| 2026-05-08 01:09 | 32.87167 | -115.06562 | 29968 ft | 471 kts | 273° |
| 2026-05-08 01:10 | 32.87043 | -115.11790 | 29214 ft | 473 kts | 273° |
| 2026-05-08 01:10 | 32.86949 | -115.15656 | 28665 ft | 470 kts | 272° |
| 2026-05-08 01:10 | 32.86852 | -115.19535 | 28121 ft | 464 kts | 272° |
| 2026-05-08 01:10 | 32.86757 | -115.23333 | 27595 ft | 458 kts | 272° |
| 2026-05-08 01:11 | 32.86694 | -115.25813 | 27254 ft | 455 kts | 272° |
| 2026-05-08 01:11 | 32.86568 | -115.30791 | 26575 ft | 452 kts | 272° |
| 2026-05-08 01:11 | 32.86359 | -115.34558 | 26061 ft | 453 kts | 266° |
| 2026-05-08 01:11 | 32.85874 | -115.38207 | 25523 ft | 452 kts | 265° |
| 2026-05-08 01:12 | 32.85370 | -115.41920 | 24980 ft | 448 kts | 265° |
| 2026-05-08 01:12 | 32.84869 | -115.45559 | 24469 ft | 442 kts | 264° |
| 2026-05-08 01:12 | 32.84360 | -115.49159 | 23991 ft | 437 kts | 263° |
| 2026-05-08 01:12 | 32.83791 | -115.52659 | 23821 ft | 429 kts | 263° |
| 2026-05-08 01:13 | 32.83227 | -115.56130 | 23839 ft | 432 kts | 263° |
| 2026-05-08 01:13 | 32.82641 | -115.59735 | 23844 ft | 442 kts | 263° |
| 2026-05-08 01:13 | 32.82254 | -115.62099 | 23845 ft | 443 kts | 263° |
| 2026-05-08 01:13 | 32.81461 | -115.66943 | 23061 ft | 451 kts | 262° |
| 2026-05-08 01:14 | 32.81056 | -115.69403 | 22484 ft | 448 kts | 262° |
| 2026-05-08 01:14 | 32.80272 | -115.74149 | 21413 ft | 433 kts | 262° |
| 2026-05-08 01:14 | 32.79695 | -115.77642 | 20618 ft | 423 kts | 262° |
| 2026-05-08 01:14 | 32.79326 | -115.79882 | 20131 ft | 419 kts | 262° |
| 2026-05-08 01:15 | 32.78593 | -115.84438 | 19132 ft | 419 kts | 264° |
| 2026-05-08 01:15 | 32.78291 | -115.87862 | 18394 ft | 418 kts | 268° |
| 2026-05-08 01:15 | 32.78124 | -115.90157 | 17916 ft | 418 kts | 268° |
| 2026-05-08 01:15 | 32.77868 | -115.93556 | 17151 ft | 414 kts | 268° |
| 2026-05-08 01:16 | 32.77614 | -115.96913 | 16478 ft | 403 kts | 268° |
| 2026-05-08 01:16 | 32.77368 | -116.00174 | 15931 ft | 394 kts | 268° |
| 2026-05-08 01:16 | 32.77127 | -116.03392 | 15407 ft | 391 kts | 268° |
| 2026-05-08 01:16 | 32.76806 | -116.07634 | 14698 ft | 388 kts | 268° |
| 2026-05-08 01:17 | 32.76643 | -116.09786 | 14325 ft | 386 kts | 268° |
| 2026-05-08 01:17 | 32.76325 | -116.13971 | 13605 ft | 385 kts | 268° |
| 2026-05-08 01:17 | 32.76164 | -116.16084 | 13209 ft | 384 kts | 268° |
| 2026-05-08 01:17 | 32.75842 | -116.20284 | 12509 ft | 380 kts | 268° |
| 2026-05-08 01:18 | 32.75604 | -116.23354 | 12491 ft | 361 kts | 268° |
| 2026-05-08 01:18 | 32.75454 | -116.25278 | 12464 ft | 351 kts | 268° |
| 2026-05-08 01:18 | 32.75158 | -116.29130 | 11833 ft | 348 kts | 268° |
| 2026-05-08 01:18 | 32.74941 | -116.31952 | 11525 ft | 341 kts | 268° |
| 2026-05-08 01:19 | 32.74723 | -116.34762 | 11252 ft | 333 kts | 268° |
| 2026-05-08 01:19 | 32.74582 | -116.36569 | 11094 ft | 328 kts | 268° |
| 2026-05-08 01:19 | 32.74305 | -116.40140 | 10827 ft | 324 kts | 268° |
| 2026-05-08 01:19 | 32.74097 | -116.42820 | 10573 ft | 329 kts | 268° |
| 2026-05-08 01:20 | 32.73883 | -116.45551 | 10233 ft | 328 kts | 268° |
| 2026-05-08 01:20 | 32.73674 | -116.48196 | 10129 ft | 314 kts | 268° |
| 2026-05-08 01:20 | 32.73468 | -116.50693 | 10117 ft | 299 kts | 267° |
| 2026-05-08 01:20 | 32.73310 | -116.52337 | 9947 ft | 296 kts | 266° |
| 2026-05-08 01:21 | 32.72997 | -116.55577 | 9556 ft | 292 kts | 266° |
| 2026-05-08 01:21 | 32.72768 | -116.57947 | 9270 ft | 289 kts | 266° |
| 2026-05-08 01:21 | 32.72567 | -116.60026 | 9031 ft | 285 kts | 266° |
| 2026-05-08 01:21 | 32.72338 | -116.62386 | 8701 ft | 285 kts | 266° |
| 2026-05-08 01:22 | 32.72114 | -116.64693 | 8472 ft | 280 kts | 266° |
| 2026-05-08 01:22 | 32.71974 | -116.66219 | 8302 ft | 277 kts | 267° |
| 2026-05-08 01:22 | 32.71736 | -116.69273 | 7774 ft | 277 kts | 267° |
| 2026-05-08 01:22 | 32.71616 | -116.70796 | 7586 ft | 275 kts | 267° |
| 2026-05-08 01:23 | 32.71381 | -116.73786 | 7239 ft | 269 kts | 267° |
| 2026-05-08 01:23 | 32.71207 | -116.75993 | 6873 ft | 270 kts | 267° |
| 2026-05-08 01:23 | 32.71040 | -116.78114 | 6510 ft | 270 kts | 267° |
| 2026-05-08 01:23 | 32.70864 | -116.80344 | 6072 ft | 273 kts | 268° |
| 2026-05-08 01:24 | 32.70486 | -116.82542 | 5605 ft | 274 kts | 253° |
| 2026-05-08 01:24 | 32.69837 | -116.84604 | 5547 ft | 253 kts | 253° |
| 2026-05-08 01:24 | 32.69255 | -116.86516 | 5390 ft | 240 kts | 253° |
| 2026-05-08 01:24 | 32.68701 | -116.88331 | 5203 ft | 229 kts | 254° |
| 2026-05-08 01:25 | 32.68170 | -116.90150 | 4944 ft | 224 kts | 254° |